sensor_id;sensor_type;location;lat;lon;timestamp;P1;durP1;ratioP1;P2;durP2;ratioP2
46597;SDS011;32318;48.858;8.252;2024-01-11T00:04:40;44.70;;;15.65;;
46597;SDS011;32318;48.858;8.252;2024-01-11T00:12:40;52.90;;;17.58;;
46597;SDS011;32318;48.858;8.252;2024-01-11T00:20:41;66.65;;;20.58;;
46597;SDS011;32318;48.858;8.252;2024-01-11T00:28:41;67.78;;;20.30;;
46597;SDS011;32318;48.858;8.252;2024-01-11T00:36:41;74.40;;;21.23;;
46597;SDS011;32318;48.858;8.252;2024-01-11T00:44:42;62.83;;;21.02;;
46597;SDS011;32318;48.858;8.252;2024-01-11T00:52:42;69.18;;;22.30;;
46597;SDS011;32318;48.858;8.252;2024-01-11T01:00:42;60.15;;;20.67;;
46597;SDS011;32318;48.858;8.252;2024-01-11T01:08:42;25.58;;;8.70;;
46597;SDS011;32318;48.858;8.252;2024-01-11T01:16:43;58.45;;;18.80;;
46597;SDS011;32318;48.858;8.252;2024-01-11T01:24:43;79.95;;;19.10;;
46597;SDS011;32318;48.858;8.252;2024-01-11T01:32:43;30.00;;;10.32;;
46597;SDS011;32318;48.858;8.252;2024-01-11T01:40:44;59.85;;;17.30;;
46597;SDS011;32318;48.858;8.252;2024-01-11T01:48:44;28.33;;;10.73;;
46597;SDS011;32318;48.858;8.252;2024-01-11T01:56:44;18.35;;;7.13;;
46597;SDS011;32318;48.858;8.252;2024-01-11T02:04:45;18.42;;;7.97;;
46597;SDS011;32318;48.858;8.252;2024-01-11T02:12:46;38.28;;;11.50;;
46597;SDS011;32318;48.858;8.252;2024-01-11T02:20:46;26.92;;;7.97;;
46597;SDS011;32318;48.858;8.252;2024-01-11T02:28:47;25.50;;;9.20;;
46597;SDS011;32318;48.858;8.252;2024-01-11T02:36:47;38.42;;;13.88;;
46597;SDS011;32318;48.858;8.252;2024-01-11T02:44:47;54.22;;;17.73;;
46597;SDS011;32318;48.858;8.252;2024-01-11T02:52:47;64.30;;;19.23;;
46597;SDS011;32318;48.858;8.252;2024-01-11T03:00:48;19.00;;;9.25;;
46597;SDS011;32318;48.858;8.252;2024-01-11T03:08:48;59.63;;;17.35;;
46597;SDS011;32318;48.858;8.252;2024-01-11T03:16:51;26.35;;;9.52;;
46597;SDS011;32318;48.858;8.252;2024-01-11T03:24:51;60.40;;;17.75;;
46597;SDS011;32318;48.858;8.252;2024-01-11T03:32:52;69.47;;;19.90;;
46597;SDS011;32318;48.858;8.252;2024-01-11T03:40:52;58.05;;;18.13;;
46597;SDS011;32318;48.858;8.252;2024-01-11T03:48:52;47.13;;;14.48;;
46597;SDS011;32318;48.858;8.252;2024-01-11T03:56:52;31.02;;;11.25;;
46597;SDS011;32318;48.858;8.252;2024-01-11T04:04:53;42.22;;;13.02;;
46597;SDS011;32318;48.858;8.252;2024-01-11T04:12:53;63.10;;;21.60;;
46597;SDS011;32318;48.858;8.252;2024-01-11T04:20:54;49.88;;;16.75;;
46597;SDS011;32318;48.858;8.252;2024-01-11T04:28:54;46.17;;;15.20;;
46597;SDS011;32318;48.858;8.252;2024-01-11T04:36:54;49.72;;;15.50;;
46597;SDS011;32318;48.858;8.252;2024-01-11T04:44:55;64.13;;;21.80;;
46597;SDS011;32318;48.858;8.252;2024-01-11T04:52:55;65.93;;;22.48;;
46597;SDS011;32318;48.858;8.252;2024-01-11T05:00:55;60.78;;;16.73;;
46597;SDS011;32318;48.858;8.252;2024-01-11T05:08:56;46.45;;;15.80;;
46597;SDS011;32318;48.858;8.252;2024-01-11T05:16:59;49.45;;;15.65;;
46597;SDS011;32318;48.858;8.252;2024-01-11T05:25:00;63.85;;;20.88;;
46597;SDS011;32318;48.858;8.252;2024-01-11T05:33:00;43.17;;;12.70;;
46597;SDS011;32318;48.858;8.252;2024-01-11T05:41:01;54.58;;;17.27;;
46597;SDS011;32318;48.858;8.252;2024-01-11T05:49:02;58.40;;;19.77;;
46597;SDS011;32318;48.858;8.252;2024-01-11T05:57:03;31.67;;;10.13;;
46597;SDS011;32318;48.858;8.252;2024-01-11T06:05:04;68.25;;;21.92;;
46597;SDS011;32318;48.858;8.252;2024-01-11T06:13:08;87.22;;;24.75;;
46597;SDS011;32318;48.858;8.252;2024-01-11T06:21:09;71.28;;;20.17;;
46597;SDS011;32318;48.858;8.252;2024-01-11T06:29:09;48.60;;;16.95;;
46597;SDS011;32318;48.858;8.252;2024-01-11T06:37:10;37.03;;;12.73;;
46597;SDS011;32318;48.858;8.252;2024-01-11T06:45:11;23.05;;;6.72;;
46597;SDS011;32318;48.858;8.252;2024-01-11T06:53:11;18.48;;;7.93;;
46597;SDS011;32318;48.858;8.252;2024-01-11T07:01:11;61.25;;;18.98;;
46597;SDS011;32318;48.858;8.252;2024-01-11T07:09:12;62.78;;;17.85;;
46597;SDS011;32318;48.858;8.252;2024-01-11T07:17:12;53.33;;;10.98;;
46597;SDS011;32318;48.858;8.252;2024-01-11T07:25:13;44.47;;;12.55;;
46597;SDS011;32318;48.858;8.252;2024-01-11T07:33:14;29.85;;;11.27;;
46597;SDS011;32318;48.858;8.252;2024-01-11T07:41:14;14.48;;;4.78;;
46597;SDS011;32318;48.858;8.252;2024-01-11T07:49:14;39.83;;;13.65;;
46597;SDS011;32318;48.858;8.252;2024-01-11T07:57:15;35.00;;;9.55;;
46597;SDS011;32318;48.858;8.252;2024-01-11T08:05:15;19.35;;;6.35;;
46597;SDS011;32318;48.858;8.252;2024-01-11T08:13:16;35.70;;;9.80;;
46597;SDS011;32318;48.858;8.252;2024-01-11T08:21:20;26.00;;;11.35;;
46597;SDS011;32318;48.858;8.252;2024-01-11T08:29:20;20.70;;;8.60;;
46597;SDS011;32318;48.858;8.252;2024-01-11T08:37:22;62.80;;;18.00;;
46597;SDS011;32318;48.858;8.252;2024-01-11T08:45:23;57.78;;;19.52;;
46597;SDS011;32318;48.858;8.252;2024-01-11T08:53:23;16.88;;;10.82;;
46597;SDS011;32318;48.858;8.252;2024-01-11T09:01:23;53.38;;;18.83;;
46597;SDS011;32318;48.858;8.252;2024-01-11T09:09:25;49.58;;;16.63;;
46597;SDS011;32318;48.858;8.252;2024-01-11T09:17:25;35.45;;;12.60;;
46597;SDS011;32318;48.858;8.252;2024-01-11T09:25:25;41.53;;;16.17;;
46597;SDS011;32318;48.858;8.252;2024-01-11T09:33:26;72.50;;;21.23;;
46597;SDS011;32318;48.858;8.252;2024-01-11T09:41:26;64.35;;;19.45;;
46597;SDS011;32318;48.858;8.252;2024-01-11T09:49:27;62.65;;;21.20;;
46597;SDS011;32318;48.858;8.252;2024-01-11T09:57:30;68.05;;;21.05;;
46597;SDS011;32318;48.858;8.252;2024-01-11T10:05:33;70.57;;;20.90;;
46597;SDS011;32318;48.858;8.252;2024-01-11T10:13:35;54.72;;;15.30;;
46597;SDS011;32318;48.858;8.252;2024-01-11T10:21:39;60.88;;;13.43;;
46597;SDS011;32318;48.858;8.252;2024-01-11T10:29:39;51.47;;;19.02;;
46597;SDS011;32318;48.858;8.252;2024-01-11T10:37:39;79.07;;;20.52;;
46597;SDS011;32318;48.858;8.252;2024-01-11T10:45:41;65.97;;;20.20;;
46597;SDS011;32318;48.858;8.252;2024-01-11T10:53:43;53.90;;;17.95;;
46597;SDS011;32318;48.858;8.252;2024-01-11T11:01:48;29.20;;;10.88;;
46597;SDS011;32318;48.858;8.252;2024-01-11T11:09:49;16.98;;;8.85;;
46597;SDS011;32318;48.858;8.252;2024-01-11T11:17:51;45.28;;;16.45;;
46597;SDS011;32318;48.858;8.252;2024-01-11T11:25:54;35.75;;;10.48;;
46597;SDS011;32318;48.858;8.252;2024-01-11T11:33:58;59.85;;;19.13;;
46597;SDS011;32318;48.858;8.252;2024-01-11T11:42:03;46.65;;;16.33;;
46597;SDS011;32318;48.858;8.252;2024-01-11T11:58:05;56.17;;;17.92;;
46597;SDS011;32318;48.858;8.252;2024-01-11T12:06:06;78.32;;;24.08;;
46597;SDS011;32318;48.858;8.252;2024-01-11T12:14:08;48.28;;;10.65;;
46597;SDS011;32318;48.858;8.252;2024-01-11T12:22:08;42.22;;;13.75;;
46597;SDS011;32318;48.858;8.252;2024-01-11T12:30:09;71.75;;;23.40;;
46597;SDS011;32318;48.858;8.252;2024-01-11T12:38:14;66.53;;;23.05;;
46597;SDS011;32318;48.858;8.252;2024-01-11T12:46:15;25.25;;;10.77;;
46597;SDS011;32318;48.858;8.252;2024-01-11T12:54:17;58.85;;;18.77;;
46597;SDS011;32318;48.858;8.252;2024-01-11T13:02:19;29.02;;;10.88;;
46597;SDS011;32318;48.858;8.252;2024-01-11T13:10:20;68.03;;;20.45;;
46597;SDS011;32318;48.858;8.252;2024-01-11T13:18:20;64.03;;;20.63;;
46597;SDS011;32318;48.858;8.252;2024-01-11T13:34:30;77.45;;;24.40;;
46597;SDS011;32318;48.858;8.252;2024-01-11T13:42:31;51.10;;;18.50;;
46597;SDS011;32318;48.858;8.252;2024-01-11T13:50:31;50.20;;;17.63;;
46597;SDS011;32318;48.858;8.252;2024-01-11T13:58:35;91.97;;;27.52;;
46597;SDS011;32318;48.858;8.252;2024-01-11T14:06:35;25.77;;;10.38;;
46597;SDS011;32318;48.858;8.252;2024-01-11T14:14:35;64.47;;;22.20;;
46597;SDS011;32318;48.858;8.252;2024-01-11T14:22:36;46.08;;;16.17;;
46597;SDS011;32318;48.858;8.252;2024-01-11T14:30:36;61.15;;;20.65;;
46597;SDS011;32318;48.858;8.252;2024-01-11T14:38:36;48.28;;;16.13;;
46597;SDS011;32318;48.858;8.252;2024-01-11T14:46:37;58.95;;;15.73;;
46597;SDS011;32318;48.858;8.252;2024-01-11T14:54:42;76.37;;;25.73;;
46597;SDS011;32318;48.858;8.252;2024-01-11T15:02:42;63.83;;;23.33;;
46597;SDS011;32318;48.858;8.252;2024-01-11T15:10:45;77.68;;;26.35;;
46597;SDS011;32318;48.858;8.252;2024-01-11T15:18:49;66.30;;;20.63;;
46597;SDS011;32318;48.858;8.252;2024-01-11T15:26:50;58.40;;;19.17;;
46597;SDS011;32318;48.858;8.252;2024-01-11T15:34:50;85.47;;;27.00;;
46597;SDS011;32318;48.858;8.252;2024-01-11T15:42:52;79.88;;;24.17;;
46597;SDS011;32318;48.858;8.252;2024-01-11T15:50:53;56.70;;;19.15;;
46597;SDS011;32318;48.858;8.252;2024-01-11T15:59:05;73.18;;;23.75;;
46597;SDS011;32318;48.858;8.252;2024-01-11T16:07:08;81.07;;;25.45;;
46597;SDS011;32318;48.858;8.252;2024-01-11T16:15:08;85.50;;;28.35;;
46597;SDS011;32318;48.858;8.252;2024-01-11T16:23:10;81.72;;;25.98;;
46597;SDS011;32318;48.858;8.252;2024-01-11T16:31:11;77.50;;;26.00;;
46597;SDS011;32318;48.858;8.252;2024-01-11T16:39:11;99.50;;;28.65;;
46597;SDS011;32318;48.858;8.252;2024-01-11T16:47:11;96.30;;;28.90;;
46597;SDS011;32318;48.858;8.252;2024-01-11T16:55:12;87.20;;;27.35;;
46597;SDS011;32318;48.858;8.252;2024-01-11T17:03:12;88.88;;;27.85;;
46597;SDS011;32318;48.858;8.252;2024-01-11T17:11:12;102.97;;;30.02;;
46597;SDS011;32318;48.858;8.252;2024-01-11T17:19:13;82.28;;;26.30;;
46597;SDS011;32318;48.858;8.252;2024-01-11T17:27:13;99.03;;;27.80;;
46597;SDS011;32318;48.858;8.252;2024-01-11T17:35:14;97.22;;;30.95;;
46597;SDS011;32318;48.858;8.252;2024-01-11T17:43:14;94.97;;;30.00;;
46597;SDS011;32318;48.858;8.252;2024-01-11T17:51:19;92.30;;;29.05;;
46597;SDS011;32318;48.858;8.252;2024-01-11T17:59:19;95.78;;;29.15;;
46597;SDS011;32318;48.858;8.252;2024-01-11T18:07:19;89.45;;;28.98;;
46597;SDS011;32318;48.858;8.252;2024-01-11T18:15:22;83.47;;;24.65;;
46597;SDS011;32318;48.858;8.252;2024-01-11T18:23:22;86.60;;;28.25;;
46597;SDS011;32318;48.858;8.252;2024-01-11T18:31:22;99.40;;;28.88;;
46597;SDS011;32318;48.858;8.252;2024-01-11T18:39:23;92.45;;;30.13;;
46597;SDS011;32318;48.858;8.252;2024-01-11T18:47:23;96.00;;;29.75;;
46597;SDS011;32318;48.858;8.252;2024-01-11T18:55:24;88.65;;;28.05;;
46597;SDS011;32318;48.858;8.252;2024-01-11T19:03:25;88.85;;;28.50;;
46597;SDS011;32318;48.858;8.252;2024-01-11T19:11:25;100.05;;;31.80;;
46597;SDS011;32318;48.858;8.252;2024-01-11T19:19:25;95.13;;;31.15;;
46597;SDS011;32318;48.858;8.252;2024-01-11T19:27:27;116.55;;;30.33;;
46597;SDS011;32318;48.858;8.252;2024-01-11T19:35:31;97.32;;;31.17;;
46597;SDS011;32318;48.858;8.252;2024-01-11T19:43:34;107.30;;;30.45;;
46597;SDS011;32318;48.858;8.252;2024-01-11T19:51:44;99.22;;;30.55;;
46597;SDS011;32318;48.858;8.252;2024-01-11T19:59:51;92.35;;;31.40;;
46597;SDS011;32318;48.858;8.252;2024-01-11T20:07:51;94.72;;;28.77;;
46597;SDS011;32318;48.858;8.252;2024-01-11T20:15:52;94.45;;;29.52;;
46597;SDS011;32318;48.858;8.252;2024-01-11T20:23:52;94.57;;;30.38;;
46597;SDS011;32318;48.858;8.252;2024-01-11T20:31:52;89.03;;;28.70;;
46597;SDS011;32318;48.858;8.252;2024-01-11T20:39:53;104.75;;;31.77;;
46597;SDS011;32318;48.858;8.252;2024-01-11T20:47:57;87.40;;;29.45;;
46597;SDS011;32318;48.858;8.252;2024-01-11T20:56:07;104.95;;;31.85;;
46597;SDS011;32318;48.858;8.252;2024-01-11T21:04:11;104.55;;;29.80;;
46597;SDS011;32318;48.858;8.252;2024-01-11T21:12:11;93.90;;;30.53;;
46597;SDS011;32318;48.858;8.252;2024-01-11T21:20:12;87.35;;;29.42;;
46597;SDS011;32318;48.858;8.252;2024-01-11T21:28:12;86.70;;;30.58;;
46597;SDS011;32318;48.858;8.252;2024-01-11T21:36:13;91.80;;;29.88;;
46597;SDS011;32318;48.858;8.252;2024-01-11T21:44:16;94.32;;;31.00;;
46597;SDS011;32318;48.858;8.252;2024-01-11T21:52:17;85.60;;;28.45;;
46597;SDS011;32318;48.858;8.252;2024-01-11T22:00:17;92.20;;;30.65;;
46597;SDS011;32318;48.858;8.252;2024-01-11T22:08:18;91.70;;;30.73;;
46597;SDS011;32318;48.858;8.252;2024-01-11T22:16:20;86.03;;;29.08;;
46597;SDS011;32318;48.858;8.252;2024-01-11T22:24:20;84.90;;;29.20;;
46597;SDS011;32318;48.858;8.252;2024-01-11T22:32:23;98.75;;;31.80;;
46597;SDS011;32318;48.858;8.252;2024-01-11T22:40:23;99.10;;;31.88;;
46597;SDS011;32318;48.858;8.252;2024-01-11T22:48:24;97.95;;;32.30;;
46597;SDS011;32318;48.858;8.252;2024-01-11T22:56:24;87.10;;;31.38;;
46597;SDS011;32318;48.858;8.252;2024-01-11T23:04:24;82.03;;;29.15;;
46597;SDS011;32318;48.858;8.252;2024-01-11T23:12:24;86.35;;;29.98;;
46597;SDS011;32318;48.858;8.252;2024-01-11T23:20:25;99.00;;;30.10;;
46597;SDS011;32318;48.858;8.252;2024-01-11T23:28:25;89.93;;;29.30;;
46597;SDS011;32318;48.858;8.252;2024-01-11T23:36:25;94.25;;;30.38;;
46597;SDS011;32318;48.858;8.252;2024-01-11T23:44:26;89.95;;;29.58;;
46597;SDS011;32318;48.858;8.252;2024-01-11T23:52:26;90.90;;;30.92;;
